Terminal Aerodrome Forecast
Issued by NWS Wilmington, OH

Current Version | Previous Version | Graphics & Text | Print | Product List | Glossary On
Versions: 1 2 3 4 5 6 7 8 9 10 11 12 13 14 15 16 17 18 19 20 21
020
FTUS41 KILN 011425 AAC
TAFCMH
TAF AMD
KCMH 011425Z 0114/0212 20010KT P6SM VCTS SCT025 OVC045CB
      TEMPO 0114/0116 3SM -TSRA OVC035CB
     FM011700 23020G32KT P6SM VCSH BKN050
     FM011900 23020G31KT P6SM BKN035
     FM020000 27018G28KT P6SM BKN035
     FM020400 27017G25KT P6SM BKN035=

USA.gov is the U.S. government's official web portal to all federal, state and local government web resources and services.